createdAt,value
2018-02-20T09:27:21.000Z,19.60
2018-02-20T09:29:48.588Z,12.80
2018-02-20T09:32:16.156Z,7.50
2018-02-20T09:34:43.781Z,4.70
2018-02-20T09:37:11.330Z,2.70
2018-02-20T09:39:39.747Z,1.10
2018-02-20T09:42:07.316Z,1.00
2018-02-20T09:44:34.855Z,0.80
2018-02-20T09:47:02.427Z,0.60
2018-02-20T09:49:30.016Z,0.50
2018-02-20T09:51:57.555Z,0.40
2018-02-20T09:54:25.209Z,0.40
2018-02-20T09:56:53.399Z,0.40
2018-02-20T09:59:20.941Z,0.40
2018-02-20T10:01:48.510Z,0.60
2018-02-20T10:04:16.049Z,0.40
2018-02-20T10:06:43.582Z,0.30
2018-02-20T10:09:11.149Z,0.30
2018-02-20T10:11:40.152Z,0.30
2018-02-20T10:14:07.687Z,0.30
2018-02-20T10:16:35.263Z,0.30
2018-02-20T10:19:03.948Z,0.40
2018-02-20T10:21:32.572Z,0.30
2018-02-20T10:24:00.125Z,0.30
2018-02-20T10:26:27.699Z,0.30
2018-02-20T10:28:55.253Z,0.30
2018-02-20T10:31:22.809Z,0.50
2018-02-20T10:33:50.377Z,0.50
2018-02-20T10:36:17.913Z,0.40
2018-02-20T10:38:45.465Z,0.40
2018-02-20T10:41:13.012Z,0.50
2018-02-20T10:43:42.400Z,0.30
2018-02-20T10:46:10.718Z,0.40
2018-02-20T10:48:38.282Z,0.30
2018-02-20T10:51:05.807Z,0.40
2018-02-20T10:53:33.365Z,0.50
2018-02-20T10:56:00.917Z,0.50
2018-02-20T10:58:28.513Z,0.40
2018-02-20T11:00:56.099Z,0.40
2018-02-20T11:03:24.641Z,0.40
2018-02-20T11:05:52.187Z,0.40
2018-02-20T11:08:19.772Z,0.50
2018-02-20T11:10:47.340Z,0.50
2018-02-20T11:13:14.958Z,0.30
2018-02-20T11:15:43.288Z,0.60
2018-02-20T11:18:10.896Z,0.60
2018-02-20T11:20:38.480Z,0.60
2018-02-20T11:23:06.024Z,0.70
2018-02-20T11:25:33.571Z,0.70
2018-02-20T11:28:01.909Z,0.70
2018-02-20T11:30:29.458Z,0.70
2018-02-20T11:32:57.001Z,0.70
2018-02-20T11:35:24.566Z,0.60
2018-02-20T11:37:52.116Z,0.50
2018-02-20T11:40:19.723Z,0.50
2018-02-20T11:42:49.779Z,0.50
2018-02-20T11:45:18.339Z,0.60
2018-02-20T11:47:46.697Z,0.70
2018-02-20T11:50:15.472Z,0.70
2018-02-20T11:52:43.801Z,0.70
2018-02-20T11:55:12.126Z,0.90
2018-02-20T11:57:39.678Z,0.90
2018-02-20T12:00:07.428Z,0.90
2018-02-20T12:02:35.101Z,0.80
2018-02-20T12:05:03.570Z,0.80
2018-02-20T12:07:31.346Z,0.80
2018-02-20T12:09:58.893Z,0.60
2018-02-20T12:12:26.451Z,0.60
2018-02-20T12:14:54.011Z,0.50
2018-02-20T12:17:21.537Z,0.70
2018-02-20T12:19:49.811Z,0.80
2018-02-20T12:22:17.377Z,0.90
2018-02-20T12:24:46.653Z,0.90
2018-02-20T12:27:14.216Z,0.90
2018-02-20T12:29:41.767Z,0.80
2018-02-20T12:32:09.368Z,0.70
2018-02-20T12:34:37.684Z,0.60
2018-02-20T12:37:05.341Z,0.60
2018-02-20T12:39:33.001Z,0.80
2018-02-20T12:42:01.259Z,0.80
2018-02-20T12:44:29.052Z,0.70
2018-02-20T12:46:56.645Z,0.70
2018-02-20T12:49:24.188Z,0.50
2018-02-20T12:51:52.582Z,0.50
2018-02-20T12:54:21.104Z,0.60
2018-02-20T12:56:48.666Z,0.50
2018-02-20T12:59:17.425Z,0.40
2018-02-20T13:01:45.744Z,0.50
2018-02-20T13:04:14.319Z,0.50
2018-02-20T13:06:41.916Z,0.50
2018-02-20T13:09:09.480Z,0.50
2018-02-20T13:11:37.682Z,0.40
2018-02-20T13:14:06.004Z,0.30
2018-02-20T13:16:33.548Z,0.30
2018-02-20T13:19:01.110Z,0.30
2018-02-20T13:21:28.890Z,0.40
2018-02-20T13:23:56.430Z,0.40
2018-02-20T13:26:24.013Z,0.40
2018-02-20T13:28:51.561Z,0.50
2018-02-20T13:31:19.112Z,0.50
2018-02-20T13:33:46.697Z,0.50
2018-02-20T13:36:14.923Z,0.60
2018-02-20T13:38:43.260Z,0.40
2018-02-20T13:41:11.627Z,0.40
2018-02-20T13:43:40.468Z,0.40
2018-02-20T13:46:09.905Z,0.50
2018-02-20T13:48:37.550Z,0.40
2018-02-20T13:51:05.105Z,0.40
2018-02-20T13:53:34.760Z,0.50
2018-02-20T13:56:02.380Z,0.40
2018-02-20T13:58:30.807Z,0.50
2018-02-20T14:00:58.384Z,0.50
2018-02-20T14:03:25.960Z,0.50
2018-02-20T14:05:54.272Z,0.60
2018-02-20T14:08:21.837Z,0.50
2018-02-20T14:10:49.397Z,0.50
2018-02-20T14:13:16.957Z,0.50
2018-02-20T14:15:44.499Z,0.50
2018-02-20T14:18:12.094Z,0.50
2018-02-20T14:20:39.741Z,0.50
2018-02-20T14:23:07.294Z,0.50
2018-02-20T14:25:34.910Z,0.50
2018-02-20T14:28:02.522Z,0.50
2018-02-20T14:30:30.930Z,0.50
2018-02-20T14:32:58.488Z,0.50
2018-02-20T14:35:26.035Z,0.50
2018-02-20T14:37:53.592Z,0.50
2018-02-20T14:40:21.151Z,0.60
2018-02-20T14:42:48.701Z,0.70
2018-02-20T14:45:16.363Z,0.70
2018-02-20T14:47:43.933Z,0.70
2018-02-20T14:50:11.471Z,0.80
2018-02-20T14:52:39.030Z,0.70
2018-02-20T14:55:06.576Z,0.80
2018-02-20T14:57:34.144Z,0.90
2018-02-20T15:00:01.719Z,0.90
2018-02-20T15:02:29.256Z,0.80
2018-02-20T15:04:58.335Z,0.70
2018-02-20T15:07:27.018Z,0.70
2018-02-20T15:09:54.571Z,0.70
2018-02-20T15:12:22.131Z,0.80
2018-02-20T15:14:49.728Z,0.90
2018-02-20T15:17:17.269Z,0.90
2018-02-20T15:19:45.838Z,0.90
2018-02-20T15:22:14.478Z,0.80
2018-02-20T15:24:42.014Z,0.80
2018-02-20T15:27:09.589Z,0.80
2018-02-20T15:29:37.128Z,0.80
2018-02-20T15:32:04.672Z,0.90
2018-02-20T15:34:32.982Z,0.80
2018-02-20T15:37:00.525Z,0.80
2018-02-20T15:39:28.102Z,0.80
2018-02-20T15:41:55.652Z,0.70
2018-02-20T15:44:23.222Z,0.80
2018-02-20T15:46:51.368Z,0.70
2018-02-20T15:49:18.912Z,0.60
2018-02-20T15:51:48.356Z,0.70
2018-02-20T15:54:16.017Z,0.70
2018-02-20T15:56:43.600Z,0.70
2018-02-20T15:59:11.752Z,0.60
2018-02-20T16:01:39.293Z,0.70
2018-02-20T16:04:06.858Z,0.70
2018-02-20T16:06:34.640Z,0.70
2018-02-20T16:09:02.189Z,0.70
2018-02-20T16:11:29.723Z,0.60
2018-02-20T16:14:03.663Z,0.60
2018-02-20T16:16:31.472Z,0.60
2018-02-20T16:18:59.028Z,0.60
2018-02-20T16:21:26.575Z,0.60
2018-02-20T16:23:54.116Z,0.60
2018-02-20T16:26:21.698Z,0.50
2018-02-20T16:28:49.245Z,0.50
2018-02-20T16:31:16.811Z,0.50
2018-02-20T16:33:44.367Z,0.50
2018-02-20T16:36:11.901Z,0.40
2018-02-20T16:38:39.478Z,0.40
2018-02-20T16:41:07.020Z,0.40
2018-02-20T16:43:34.564Z,0.50
2018-02-20T16:46:02.125Z,0.50
2018-02-20T16:48:29.670Z,0.40
2018-02-20T16:50:58.078Z,0.40
2018-02-20T16:53:25.618Z,0.40
2018-02-20T16:55:53.200Z,0.40
2018-02-20T16:58:20.752Z,0.50
2018-02-20T17:00:48.308Z,0.50
2018-02-20T17:03:15.961Z,0.50
2018-02-20T17:05:43.562Z,0.50
2018-02-20T17:08:11.120Z,0.40
2018-02-20T17:10:38.712Z,0.40
2018-02-20T17:13:06.428Z,0.30
2018-02-20T17:15:34.089Z,0.30
2018-02-20T17:18:01.631Z,0.30
2018-02-20T17:20:29.641Z,0.30
2018-02-20T17:22:58.127Z,0.30
2018-02-20T17:25:25.712Z,0.20
2018-02-20T17:27:54.738Z,0.10
2018-02-20T17:30:22.291Z,0.10
2018-02-20T17:32:52.219Z,0.10
2018-02-20T17:35:20.764Z,0.00
2018-02-20T17:37:49.395Z,0.00
2018-02-20T17:40:18.576Z,0.00
2018-02-20T17:42:46.144Z,0.00
2018-02-20T17:45:15.771Z,0.00
2018-02-20T17:47:43.369Z,0.10
2018-02-20T17:50:12.630Z,0.00
2018-02-20T17:52:43.582Z,0.00
2018-02-20T17:55:11.461Z,0.00
2018-02-20T17:57:39.702Z,0.00
2018-02-20T18:00:10.803Z,-0.10
2018-02-20T18:02:39.047Z,-0.20
2018-02-20T18:05:07.213Z,-0.20
2018-02-20T18:07:34.783Z,-0.30
2018-02-20T18:10:03.643Z,-0.30
2018-02-20T18:12:31.742Z,-0.40
2018-02-20T18:15:02.590Z,-0.30
2018-02-20T18:17:35.685Z,-0.40
2018-02-20T18:20:03.623Z,-0.30
2018-02-20T18:22:31.271Z,-0.30
2018-02-20T18:24:58.986Z,-0.20
2018-02-20T18:27:28.258Z,-0.30
2018-02-20T18:29:56.739Z,-0.30
2018-02-20T18:32:25.342Z,-0.20
2018-02-20T18:34:53.136Z,-0.20
2018-02-20T18:37:21.645Z,-0.30
2018-02-20T18:39:49.494Z,-0.30
2018-02-20T18:42:17.352Z,-0.40
2018-02-20T18:44:45.675Z,-0.40
2018-02-20T18:47:13.241Z,-0.40
2018-02-20T18:49:41.560Z,-0.40
2018-02-20T18:52:09.903Z,-0.40
2018-02-20T18:54:38.693Z,-0.50
2018-02-20T18:57:06.648Z,-0.50
2018-02-20T18:59:34.984Z,-0.50
2018-02-20T19:02:03.116Z,-0.50
2018-02-20T19:04:32.218Z,-0.50
2018-02-20T19:07:00.252Z,-0.50
2018-02-20T19:09:28.708Z,-0.70
2018-02-20T19:11:57.035Z,-0.70
2018-02-20T19:14:24.834Z,-0.70
2018-02-20T19:16:54.835Z,-0.60
2018-02-20T19:19:22.425Z,-0.70
2018-02-20T19:21:51.352Z,-0.70
2018-02-20T19:24:19.307Z,-0.70
2018-02-20T19:26:46.974Z,-0.70
2018-02-20T19:29:14.553Z,-0.70
2018-02-20T19:31:43.918Z,-0.70
2018-02-20T19:34:11.519Z,-0.80
2018-02-20T19:36:39.097Z,-0.70
2018-02-20T19:39:06.684Z,-0.70
2018-02-20T19:41:35.165Z,-0.80
2018-02-20T19:44:03.510Z,-0.70
2018-02-20T19:46:31.260Z,-0.70
2018-02-20T19:48:58.971Z,-0.70
2018-02-20T19:51:27.855Z,-0.70
2018-02-20T19:53:56.175Z,-0.60
2018-02-20T19:56:23.834Z,-0.60
2018-02-20T19:58:52.872Z,-0.60
2018-02-20T20:01:22.436Z,-0.60
2018-02-20T20:03:57.139Z,-0.60
2018-02-20T20:06:25.553Z,-0.70
2018-02-20T20:08:53.127Z,-0.70
2018-02-20T20:11:20.705Z,-0.60
2018-02-20T20:14:00.937Z,-0.70
2018-02-20T20:16:32.946Z,-0.70
2018-02-20T20:19:01.482Z,-0.60
2018-02-20T20:21:29.200Z,-0.70
2018-02-20T20:23:56.778Z,-0.70
2018-02-20T20:26:24.311Z,-0.70
2018-02-20T20:28:51.905Z,-0.60
2018-02-20T20:31:19.441Z,-0.60
2018-02-20T20:33:47.797Z,-0.60
2018-02-20T20:36:16.222Z,-0.60
2018-02-20T20:38:43.882Z,-0.60
2018-02-20T20:41:12.906Z,-0.60
2018-02-20T20:43:40.640Z,-0.60
2018-02-20T20:46:09.019Z,-0.50
2018-02-20T20:48:36.590Z,-0.60
2018-02-20T20:51:04.173Z,-0.60
2018-02-20T20:53:31.750Z,-0.60
2018-02-20T20:56:00.075Z,-0.50
2018-02-20T20:58:27.656Z,-0.60
2018-02-20T21:00:55.202Z,-0.50
2018-02-20T21:03:22.775Z,-0.50
2018-02-20T21:05:50.418Z,-0.50
2018-02-20T21:08:18.082Z,-0.50
2018-02-20T21:10:46.428Z,-0.50
2018-02-20T21:13:14.814Z,-0.60
2018-02-20T21:15:43.183Z,-0.60
2018-02-20T21:18:12.622Z,-0.60
2018-02-20T21:20:40.185Z,-0.70
2018-02-20T21:23:07.750Z,-0.60
2018-02-20T21:25:35.301Z,-0.60
2018-02-20T21:28:02.875Z,-0.60
2018-02-20T21:30:31.248Z,-0.70
2018-02-20T21:32:59.600Z,-0.70
2018-02-20T21:35:27.516Z,-0.70
2018-02-20T21:37:55.098Z,-0.70
2018-02-20T21:40:24.023Z,-0.70
2018-02-20T21:42:51.614Z,-0.80
2018-02-20T21:45:19.419Z,-0.70
2018-02-20T21:47:46.992Z,-0.70
2018-02-20T21:50:14.865Z,-0.70
2018-02-20T21:52:42.425Z,-0.80
2018-02-20T21:55:13.795Z,-0.80
2018-02-20T21:57:41.398Z,-0.80
2018-02-20T22:00:09.004Z,-0.80
2018-02-20T22:02:36.872Z,-0.80
2018-02-20T22:05:04.449Z,-0.80
2018-02-20T22:07:32.061Z,-0.80
2018-02-20T22:10:00.397Z,-0.80
2018-02-20T22:12:28.040Z,-0.80
2018-02-20T22:14:55.911Z,-0.80
2018-02-20T22:17:23.475Z,-0.80
2018-02-20T22:19:51.072Z,-0.90
2018-02-20T22:22:19.310Z,-0.90
2018-02-20T22:24:46.866Z,-0.80
2018-02-20T22:27:14.429Z,-0.90
2018-02-20T22:29:42.087Z,-0.90
2018-02-20T22:32:09.648Z,-0.90
2018-02-20T22:34:37.208Z,-0.90
2018-02-20T22:37:05.296Z,-0.90
2018-02-20T22:39:32.852Z,-1.00
2018-02-20T22:42:00.396Z,-1.00
2018-02-20T22:44:27.974Z,-1.00
2018-02-20T22:46:57.751Z,-1.00
2018-02-20T22:49:26.248Z,-1.00
2018-02-20T22:51:53.837Z,-1.00
2018-02-20T22:54:21.384Z,-1.00
2018-02-20T22:56:49.008Z,-1.10
2018-02-20T22:59:18.534Z,-1.10
2018-02-20T23:01:46.114Z,-1.10
2018-02-20T23:04:13.671Z,-1.00
2018-02-20T23:06:41.244Z,-1.00
2018-02-20T23:09:09.391Z,-1.00
2018-02-20T23:11:47.938Z,-1.00
2018-02-20T23:14:15.489Z,-1.00
2018-02-20T23:16:43.040Z,-1.00
2018-02-20T23:19:10.611Z,-1.10
2018-02-20T23:21:38.183Z,-1.10
2018-02-20T23:24:05.740Z,-1.10
2018-02-20T23:26:34.086Z,-1.00
2018-02-20T23:29:01.668Z,-1.00
2018-02-20T23:31:29.223Z,-1.10
2018-02-20T23:33:56.993Z,-1.10
2018-02-20T23:36:24.560Z,-1.20
2018-02-20T23:38:52.123Z,-1.20
2018-02-20T23:41:19.694Z,-1.20
2018-02-20T23:43:47.278Z,-1.10
2018-02-20T23:46:15.584Z,-1.10
2018-02-20T23:48:43.236Z,-1.20
2018-02-20T23:51:16.519Z,-1.10
2018-02-20T23:53:44.075Z,-1.20
2018-02-20T23:56:12.396Z,-1.20
2018-02-20T23:58:39.945Z,-1.20
